Airport Name : Eareckson As

Other Name : Eareckson As

ICAO : PASY

IATA : SYA

FAA : PSYA

Latitude : 52.712275

Longitude : 174.11362

Country : United States

Local Date and Time : 5/25/2018 2:00:00 AM

 

TAF (Terminal Aerodrome Forecast)

TAF PASY 250600Z 2506/2612 34009KT 9999 BKN006 OVC020 610204 QNH2989INS TEMPO 2506/2512 BKN010 OVC020 610204 BECMG 2514/2515 VRB06KT 9999 OVC009 610204 QNH3000INS TX07/2602Z TN03/2514Z

 

METAR (METeorological Aerodrome Report)

PASY 251045Z AUTO 01010KT 4SM BR OVC006 03/02 A3006 RMK AO2 RAE06DZB06E13RAB13E22DZB22E25 SLP183

PASY 251035Z AUTO 01010KT 2 3/4SM BR OVC005 03/02 A3006 RMK AO2 VIS 1 3/8V2 3/4 RAE06DZB06E13RAB13E22DZB22E25 CIG 003V005 SLP183

PASY 251025Z AUTO 01010KT 1 3/8SM BR OVC003 03/03 A3006 RMK AO2 VIS 3/4V1 3/8 RAE06DZB06E13RAB13E22DZB22E25 SLP183

PASY 250958Z AUTO 02010KT 3/4SM -RA BR OVC003 04/03 A3006 RMK AO2 RAB16E53DZB53E54RAB54 SLP183 P0001 T00380031 400720036 RVRNO

PASY 250957Z AUTO 02010KT 3/4SM -RA BR OVC003 04/03 A3006 RMK AO2 RAB16E53DZB53E54RAB54 SLP183 RVRNO

PASY 250937Z AUTO 01008KT 5/8SM -RA BR OVC003 04/03 A3005 RMK AO2 RAB16 SLP180 RVRNO

PASY 250926Z AUTO 01009KT 7/8SM -RA BR OVC003 04/03 A3005 RMK AO2 VIS 7/8V2 1/2 RAB16 CIG 003V005 SLP180 RVRNO

PASY 250916Z AUTO 35007KT 3SM -RA BR OVC005 04/03 A3005 RMK AO2 RAB16 SLP180

PASY 250858Z AUTO 32010KT 7SM OVC005 04/03 A3005 RMK AO2 SLP180 T00390027 52019

PASY 250847Z AUTO 33008KT 7SM OVC005 04/03 A3005 RMK AO2 SLP180

PASY 250827Z AUTO 33010KT 4SM BR OVC004 04/03 A3004 RMK AO2 WSHFT 21 SLP176

PASY 250819Z AUTO 01013KT 3SM BR OVC004 04/03 A3003 RMK AO2 WSHFT 16 SLP173

PASY 250818Z AUTO 34012KT 2 1/2SM BR OVC004 04/03 A3003 RMK AO2 VIS 1 3/8V2 1/2 SLP173

PASY 250808Z AUTO 35009KT 1 3/8SM BR OVC003 04/03 A3003 RMK AO2 VIS 1 3/8V5 SLP173

PASY 250758Z AUTO 32011KT 7SM OVC004 04/02 A3003 RMK AO2 SLP173 T00370024

PASY 250753Z AUTO 33012KT 6SM BR OVC005 04/02 A3003 RMK AO2 WSHFT 52 SLP173

PASY 250750Z AUTO 34011KT 5SM BR OVC005 04/02 A3003 RMK AO2 WSHFT 44 SLP173

PASY 250728Z AUTO 32013KT 7SM OVC006 04/02 A3002 RMK AO2 CIG 004V006 SLP170